createdAt,value
2023-04-02T00:01:00.529Z,73.35
2023-04-02T00:03:46.037Z,72.96
2023-04-02T00:06:45.043Z,73.43
2023-04-02T00:09:37.758Z,73.25
2023-04-02T00:12:23.476Z,73.29
2023-04-02T00:15:13.061Z,73.38
2023-04-02T00:17:59.621Z,73.11
2023-04-02T00:20:51.386Z,73.13
2023-04-02T00:23:38.912Z,73.15
2023-04-02T00:26:40.070Z,73.15
2023-04-02T00:29:26.462Z,73.27
2023-04-02T00:32:20.747Z,73.06
2023-04-02T00:35:21.407Z,73.31
2023-04-02T00:38:07.202Z,73.11
2023-04-02T00:40:56.763Z,73.38
2023-04-02T00:43:46.873Z,73.29
2023-04-02T00:46:46.904Z,73.35
2023-04-02T00:49:36.805Z,73.24
2023-04-02T00:52:26.175Z,73.46
2023-04-02T00:55:39.373Z,73.32
2023-04-02T00:58:35.587Z,73.42
2023-04-02T01:01:29.281Z,73.14
2023-04-02T01:04:38.480Z,73.10
2023-04-02T01:07:56.205Z,72.63
2023-04-02T01:11:04.286Z,72.89
2023-04-02T01:14:29.566Z,72.92
2023-04-02T01:17:37.271Z,72.59
2023-04-02T01:21:01.900Z,72.56
2023-04-02T01:24:08.779Z,72.17
2023-04-02T01:27:04.682Z,72.67
2023-04-02T01:29:56.797Z,72.67
2023-04-02T01:32:43.122Z,72.59
2023-04-02T01:35:34.291Z,72.97
2023-04-02T01:38:41.262Z,72.74
2023-04-02T01:41:36.422Z,72.99
2023-04-02T01:44:33.431Z,72.65
2023-04-02T01:47:25.556Z,73.08
2023-04-02T01:50:37.012Z,72.44
2023-04-02T01:53:25.654Z,72.33
2023-04-02T01:56:11.076Z,72.43
2023-04-02T01:58:58.589Z,72.58
2023-04-02T02:01:52.576Z,72.91
2023-04-02T02:04:39.267Z,73.47
2023-04-02T02:07:28.227Z,73.70
2023-04-02T02:10:22.022Z,74.20
2023-04-02T02:13:11.416Z,74.12
2023-04-02T02:15:59.260Z,74.22
2023-04-02T02:18:49.077Z,73.67
2023-04-02T02:21:49.789Z,73.71
2023-04-02T02:24:37.095Z,73.67
2023-04-02T02:27:25.963Z,74.02
2023-04-02T02:30:32.481Z,74.39
2023-04-02T02:33:22.218Z,74.34
2023-04-02T02:36:30.815Z,74.19
2023-04-02T02:39:33.275Z,74.36
2023-04-02T02:42:24.760Z,74.84
2023-04-02T02:45:18.279Z,74.64
2023-04-02T02:48:10.382Z,74.67
2023-04-02T02:50:56.718Z,74.83
2023-04-02T02:53:50.646Z,74.46
2023-04-02T02:56:43.866Z,73.99
2023-04-02T02:59:31.254Z,74.03
2023-04-02T03:02:18.883Z,74.56
2023-04-02T03:05:05.899Z,74.80
2023-04-02T03:07:55.498Z,75.08
2023-04-02T03:10:54.069Z,74.77
2023-04-02T03:13:47.297Z,75.19
2023-04-02T03:16:40.856Z,75.70
2023-04-02T03:19:57.601Z,75.67
2023-04-02T03:22:49.704Z,75.51
2023-04-02T03:26:09.682Z,75.68
2023-04-02T03:29:16.453Z,75.27
2023-04-02T03:32:21.278Z,75.44
2023-04-02T03:35:22.464Z,75.43
2023-04-02T03:38:25.416Z,75.19
2023-04-02T03:41:35.856Z,75.39
2023-04-02T03:44:31.706Z,75.76
2023-04-02T03:47:27.608Z,75.67
2023-04-02T03:50:23.901Z,75.74
2023-04-02T03:53:12.933Z,76.01
2023-04-02T03:56:00.644Z,75.97
2023-04-02T03:58:55.113Z,76.34
2023-04-02T04:01:56.755Z,76.79
2023-04-02T04:04:44.957Z,77.58
2023-04-02T04:07:43.358Z,78.09
2023-04-02T04:10:31.178Z,78.21
2023-04-02T04:13:22.451Z,78.57
2023-04-02T04:16:14.905Z,78.60
2023-04-02T04:19:08.091Z,79.01
2023-04-02T04:21:57.177Z,79.83
2023-04-02T04:24:49.038Z,79.51
2023-04-02T04:27:52.876Z,79.94
2023-04-02T04:30:50.957Z,79.50
2023-04-02T04:33:46.235Z,80.01
2023-04-02T04:37:25.165Z,80.05
2023-04-02T04:40:26.455Z,79.90
2023-04-02T04:43:25.107Z,80.28
2023-04-02T04:46:16.690Z,80.45
2023-04-02T04:49:11.753Z,80.45
2023-04-02T04:52:05.946Z,80.42
2023-04-02T04:54:52.737Z,81.19
2023-04-02T04:57:43.572Z,81.24
2023-04-02T05:00:48.637Z,81.49
2023-04-02T05:04:09.721Z,81.97
2023-04-02T05:07:03.023Z,81.92
2023-04-02T05:10:07.851Z,82.19
2023-04-02T05:13:02.843Z,82.18
2023-04-02T05:16:01.508Z,82.07
2023-04-02T05:18:56.766Z,82.51
2023-04-02T05:22:19.527Z,82.64
2023-04-02T05:25:37.204Z,82.75
2023-04-02T05:28:46.303Z,83.17
2023-04-02T05:31:44.202Z,82.91
2023-04-02T05:34:40.060Z,83.36
2023-04-02T05:37:30.386Z,83.10
2023-04-02T05:40:28.644Z,83.33
2023-04-02T05:43:18.357Z,82.61
2023-04-02T05:46:14.782Z,82.84
2023-04-02T05:49:00.933Z,83.06
2023-04-02T05:51:50.718Z,83.07
2023-04-02T05:54:47.428Z,82.79
2023-04-02T05:57:48.351Z,83.17
2023-04-02T06:00:39.531Z,82.46
2023-04-02T06:03:40.530Z,82.46
2023-04-02T06:06:29.214Z,82.38
2023-04-02T06:09:29.055Z,82.19
2023-04-02T06:12:14.566Z,82.36
2023-04-02T06:15:00.861Z,82.27
2023-04-02T06:17:59.787Z,82.42
2023-04-02T06:20:46.439Z,82.17
2023-04-02T06:23:41.666Z,82.55
2023-04-02T06:26:42.729Z,82.42
2023-04-02T06:29:41.706Z,82.03
2023-04-02T06:32:32.429Z,81.88
2023-04-02T06:35:18.415Z,81.85
2023-04-02T06:38:19.870Z,81.41
2023-04-02T06:41:21.682Z,81.98
2023-04-02T06:44:38.268Z,81.98
2023-04-02T06:47:49.435Z,81.79
2023-04-02T06:51:11.119Z,81.96
2023-04-02T06:53:57.613Z,81.62
2023-04-02T06:56:51.694Z,81.75
2023-04-02T06:59:44.438Z,82.14
2023-04-02T07:02:39.928Z,81.78
2023-04-02T07:05:28.465Z,81.59
2023-04-02T07:08:13.710Z,82.17
2023-04-02T07:10:59.200Z,82.09
2023-04-02T07:13:45.719Z,82.70
2023-04-02T07:16:33.983Z,83.00
2023-04-02T07:19:22.762Z,83.03
2023-04-02T07:22:12.358Z,83.36
2023-04-02T07:25:00.186Z,83.52
2023-04-02T07:27:45.438Z,83.89
2023-04-02T07:30:30.821Z,84.01
2023-04-02T07:33:19.897Z,84.18
2023-04-02T07:36:06.955Z,83.91
2023-04-02T07:38:52.904Z,83.43
2023-04-02T07:41:56.782Z,83.63
2023-04-02T07:44:42.624Z,83.24
2023-04-02T07:47:28.316Z,83.04
2023-04-02T07:50:14.161Z,83.14
2023-04-02T07:52:59.854Z,82.40
2023-04-02T07:55:45.487Z,80.74
2023-04-02T07:58:32.449Z,81.54
2023-04-02T08:01:27.321Z,82.23
2023-04-02T08:04:19.381Z,82.07
2023-04-02T08:07:04.864Z,82.10
2023-04-02T08:09:50.472Z,81.29
2023-04-02T08:12:36.603Z,81.45
2023-04-02T08:15:21.967Z,81.45
2023-04-02T08:18:07.543Z,81.23
2023-04-02T08:20:53.491Z,80.75
2023-04-02T08:23:38.923Z,80.87
2023-04-02T08:26:24.533Z,80.39
2023-04-02T08:29:09.883Z,80.77
2023-04-02T08:31:56.341Z,81.59
2023-04-02T08:34:43.817Z,81.09
2023-04-02T08:37:30.796Z,82.22
2023-04-02T08:40:42.655Z,82.00
2023-04-02T08:43:48.757Z,81.66
2023-04-02T08:46:59.127Z,81.52
2023-04-02T08:49:57.657Z,80.92
2023-04-02T08:52:43.293Z,81.03
2023-04-02T08:55:32.902Z,81.02
2023-04-02T08:58:22.872Z,81.81
2023-04-02T09:01:31.706Z,81.57
2023-04-02T09:04:20.529Z,81.77
2023-04-02T09:07:10.768Z,80.62
2023-04-02T09:09:59.207Z,80.98
2023-04-02T09:12:53.317Z,80.80
2023-04-02T09:15:40.296Z,81.02
2023-04-02T09:18:30.067Z,81.27
2023-04-02T09:21:21.987Z,81.08
2023-04-02T09:24:12.113Z,81.02
2023-04-02T09:26:57.730Z,80.64
2023-04-02T09:29:45.841Z,80.54
2023-04-02T09:32:46.444Z,80.71
2023-04-02T09:35:51.430Z,81.89
2023-04-02T09:38:37.519Z,81.62
2023-04-02T09:41:28.055Z,81.73
2023-04-02T09:44:13.622Z,82.33
2023-04-02T09:47:04.071Z,82.52
2023-04-02T09:49:49.655Z,81.78
2023-04-02T09:52:35.262Z,82.25
2023-04-02T09:55:22.443Z,82.79
2023-04-02T09:58:16.894Z,83.87
2023-04-02T10:01:03.076Z,84.31
2023-04-02T10:03:49.360Z,84.78
2023-04-02T10:06:35.624Z,84.75
2023-04-02T10:09:32.533Z,84.46
2023-04-02T10:12:17.989Z,84.73
2023-04-02T10:15:06.127Z,84.98
2023-04-02T10:18:03.654Z,85.07
2023-04-02T10:20:52.686Z,85.03
2023-04-02T10:23:38.837Z,85.01
2023-04-02T10:26:46.785Z,85.10
2023-04-02T10:29:35.171Z,84.91
2023-04-02T10:32:31.602Z,84.24
2023-04-02T10:35:22.303Z,83.39
2023-04-02T10:38:29.416Z,83.60
2023-04-02T10:41:26.864Z,82.90
2023-04-02T10:44:33.896Z,82.51
2023-04-02T10:48:00.884Z,82.35
2023-04-02T10:50:57.316Z,82.13
2023-04-02T10:53:59.585Z,81.87
2023-04-02T10:56:51.150Z,81.37
2023-04-02T10:59:42.623Z,82.33
2023-04-02T11:02:37.577Z,82.21
2023-04-02T11:05:27.217Z,81.57
2023-04-02T11:08:25.841Z,81.79
2023-04-02T11:11:26.429Z,81.79
2023-04-02T11:14:20.969Z,81.68
2023-04-02T11:17:06.358Z,82.42
2023-04-02T11:19:52.913Z,82.59
2023-04-02T11:22:38.836Z,82.68
2023-04-02T11:25:25.260Z,81.74
2023-04-02T11:28:31.881Z,81.93
2023-04-02T11:31:21.024Z,82.13
2023-04-02T11:34:06.615Z,82.49
2023-04-02T11:36:54.901Z,82.51
2023-04-02T11:39:56.837Z,82.47
2023-04-02T11:42:43.608Z,82.08
2023-04-02T11:45:28.657Z,82.50
2023-04-02T11:48:16.998Z,83.80
2023-04-02T11:51:21.528Z,84.07
2023-04-02T11:54:25.448Z,83.42
2023-04-02T11:57:32.306Z,84.02
2023-04-02T12:00:29.008Z,84.45
2023-04-02T12:03:42.404Z,84.77
2023-04-02T12:06:42.489Z,84.63
2023-04-02T12:09:47.059Z,84.39
2023-04-02T12:12:43.133Z,84.60
2023-04-02T12:15:42.595Z,85.32
2023-04-02T12:18:28.459Z,84.88
2023-04-02T12:21:23.559Z,85.38
2023-04-02T12:24:23.777Z,85.36
2023-04-02T12:27:27.686Z,85.44
2023-04-02T12:30:31.879Z,85.57
2023-04-02T12:33:20.084Z,86.53
2023-04-02T12:36:14.085Z,86.10
2023-04-02T12:38:59.530Z,86.22
2023-04-02T12:41:45.095Z,86.54
2023-04-02T12:44:31.322Z,86.47
2023-04-02T12:47:17.662Z,85.71
2023-04-02T12:50:03.841Z,86.55
2023-04-02T12:52:55.852Z,87.54
2023-04-02T12:55:48.598Z,86.88
2023-04-02T12:58:37.233Z,86.17
2023-04-02T13:01:27.631Z,86.02
2023-04-02T13:04:13.953Z,86.45
2023-04-02T13:07:00.598Z,85.78
2023-04-02T13:09:49.299Z,85.51
2023-04-02T13:12:39.623Z,85.67
2023-04-02T13:15:29.232Z,85.42
2023-04-02T13:18:23.347Z,85.37
2023-04-02T13:21:15.015Z,85.41
2023-04-02T13:24:00.726Z,84.94
2023-04-02T13:26:49.227Z,85.09
2023-04-02T13:29:36.385Z,84.95
2023-04-02T13:32:22.317Z,85.24
2023-04-02T13:35:08.114Z,86.06
2023-04-02T13:37:53.785Z,85.54
2023-04-02T13:40:39.208Z,84.91
2023-04-02T13:43:24.550Z,85.38
2023-04-02T13:46:18.941Z,85.04
2023-04-02T13:49:04.649Z,85.00
2023-04-02T13:51:59.201Z,84.88
2023-04-02T13:54:51.201Z,85.21
2023-04-02T13:57:37.456Z,85.60
2023-04-02T14:00:23.419Z,85.33
2023-04-02T14:03:14.171Z,84.92
2023-04-02T14:06:26.948Z,85.68
2023-04-02T14:09:22.050Z,84.98
2023-04-02T14:12:23.663Z,85.33
2023-04-02T14:15:22.633Z,85.27
2023-04-02T14:18:42.504Z,85.21
2023-04-02T14:21:58.588Z,84.80
2023-04-02T14:25:19.964Z,84.18
2023-04-02T14:28:08.573Z,83.28
2023-04-02T14:30:54.177Z,83.83
2023-04-02T14:33:52.021Z,83.61
2023-04-02T14:36:46.055Z,83.73
2023-04-02T14:39:40.457Z,83.82
2023-04-02T14:42:36.737Z,84.42
2023-04-02T14:45:22.483Z,84.20
2023-04-02T14:48:24.985Z,84.82
2023-04-02T14:51:32.025Z,85.16
2023-04-02T14:54:35.974Z,84.84
2023-04-02T14:57:30.516Z,84.67
2023-04-02T15:01:13.790Z,85.24
2023-04-02T15:04:08.826Z,84.55
2023-04-02T15:07:01.701Z,84.10
2023-04-02T15:09:54.763Z,84.19
2023-04-02T15:12:41.138Z,84.92
2023-04-02T15:15:44.635Z,85.19
2023-04-02T15:18:30.420Z,85.42
2023-04-02T15:21:19.080Z,86.45
2023-04-02T15:24:19.293Z,87.22
2023-04-02T15:27:32.893Z,87.33
2023-04-02T15:30:25.199Z,87.05
2023-04-02T15:33:26.966Z,87.14
2023-04-02T15:36:37.282Z,87.17
2023-04-02T15:39:33.231Z,86.85
2023-04-02T15:42:23.708Z,86.56
2023-04-02T15:45:12.987Z,85.79
2023-04-02T15:48:35.923Z,85.52
2023-04-02T15:51:46.350Z,85.81
2023-04-02T15:54:54.693Z,85.82
2023-04-02T15:57:54.659Z,85.77
2023-04-02T16:00:46.475Z,85.53
2023-04-02T16:03:56.525Z,85.36
2023-04-02T16:07:10.165Z,85.19
2023-04-02T16:10:06.332Z,85.27
2023-04-02T16:12:53.688Z,84.98
2023-04-02T16:15:47.008Z,84.15
2023-04-02T16:19:16.676Z,84.45
2023-04-02T16:22:17.060Z,84.35
2023-04-02T16:25:16.270Z,83.86
2023-04-02T16:28:14.272Z,83.77
2023-04-02T16:31:06.101Z,84.55
2023-04-02T16:34:09.694Z,84.47
2023-04-02T16:37:11.051Z,84.05
2023-04-02T16:40:26.022Z,83.78
2023-04-02T16:43:17.578Z,84.47
2023-04-02T16:46:18.538Z,84.52
2023-04-02T16:49:22.125Z,84.42
2023-04-02T16:52:18.455Z,83.98
2023-04-02T16:55:26.582Z,83.90
2023-04-02T16:58:24.138Z,84.04
2023-04-02T17:01:27.506Z,83.95
2023-04-02T17:04:28.238Z,84.00
2023-04-02T17:07:40.668Z,84.46
2023-04-02T17:10:32.471Z,83.81
2023-04-02T17:13:42.767Z,83.31
2023-04-02T17:16:36.864Z,83.61
2023-04-02T17:19:25.975Z,83.74
2023-04-02T17:22:18.811Z,83.96
2023-04-02T17:25:05.518Z,83.87
2023-04-02T17:27:54.599Z,84.20
2023-04-02T17:30:44.760Z,84.94
2023-04-02T17:33:31.238Z,85.20
2023-04-02T17:36:26.063Z,85.09
2023-04-02T17:39:18.132Z,85.23
2023-04-02T17:42:31.401Z,85.26
2023-04-02T17:45:31.922Z,85.33
2023-04-02T17:48:39.809Z,85.12
2023-04-02T17:51:39.587Z,83.97
2023-04-02T17:55:06.743Z,84.38
2023-04-02T17:58:05.149Z,84.56
2023-04-02T18:01:15.687Z,84.60
2023-04-02T18:04:19.270Z,84.25
2023-04-02T18:07:38.794Z,84.81
2023-04-02T18:10:35.573Z,84.34
2023-04-02T18:13:35.132Z,84.71
2023-04-02T18:16:45.607Z,84.96
2023-04-02T18:19:44.544Z,84.26
2023-04-02T18:22:51.342Z,84.88
2023-04-02T18:25:54.122Z,84.85
2023-04-02T18:28:39.636Z,84.93
2023-04-02T18:31:54.807Z,84.24
2023-04-02T18:35:06.892Z,84.22
2023-04-02T18:38:06.176Z,83.98
2023-04-02T18:41:30.474Z,84.35
2023-04-02T18:44:40.770Z,84.18
2023-04-02T18:47:42.038Z,84.09
2023-04-02T18:50:36.603Z,84.56
2023-04-02T18:53:25.825Z,84.58
2023-04-02T18:56:19.765Z,83.68
2023-04-02T18:59:34.163Z,83.79
2023-04-02T19:02:46.820Z,83.52
2023-04-02T19:05:40.533Z,84.37
2023-04-02T19:08:36.963Z,83.94
2023-04-02T19:11:29.591Z,84.00
2023-04-02T19:14:20.545Z,83.49
2023-04-02T19:17:18.804Z,83.85
2023-04-02T19:20:10.871Z,84.54
2023-04-02T19:23:27.671Z,84.29
2023-04-02T19:26:18.387Z,84.31
2023-04-02T19:29:30.409Z,84.19
2023-04-02T19:32:52.164Z,84.83
2023-04-02T19:35:53.764Z,84.32
2023-04-02T19:39:14.959Z,84.86
2023-04-02T19:42:11.829Z,84.73
2023-04-02T19:44:57.734Z,84.83
2023-04-02T19:47:43.025Z,84.65
2023-04-02T19:50:29.264Z,85.12
2023-04-02T19:53:16.182Z,85.04
2023-04-02T19:56:01.413Z,85.14
2023-04-02T19:58:46.759Z,84.88
2023-04-02T20:01:32.066Z,85.65
2023-04-02T20:04:17.431Z,85.00
2023-04-02T20:07:02.906Z,85.02
2023-04-02T20:09:48.367Z,84.92
2023-04-02T20:12:33.848Z,85.24
2023-04-02T20:15:20.418Z,85.77
2023-04-02T20:18:06.591Z,84.98
2023-04-02T20:20:52.567Z,85.44
2023-04-02T20:23:38.235Z,84.50
2023-04-02T20:26:23.861Z,84.76
2023-04-02T20:29:09.533Z,85.18
2023-04-02T20:31:55.225Z,85.41
2023-04-02T20:34:40.552Z,85.86
2023-04-02T20:37:25.907Z,86.44
2023-04-02T20:40:11.441Z,87.12
2023-04-02T20:42:56.993Z,86.88
2023-04-02T20:45:57.608Z,87.19
2023-04-02T20:48:43.754Z,87.68
2023-04-02T20:51:29.662Z,87.60
2023-04-02T20:54:15.751Z,87.79
2023-04-02T20:57:01.579Z,87.97
2023-04-02T20:59:47.061Z,88.17
2023-04-02T21:02:34.790Z,87.60
2023-04-02T21:05:20.770Z,88.16
2023-04-02T21:08:07.508Z,88.64
2023-04-02T21:10:53.241Z,88.52
2023-04-02T21:13:39.206Z,88.69
2023-04-02T21:16:28.701Z,88.29
2023-04-02T21:19:14.546Z,88.88
2023-04-02T21:22:00.175Z,87.73
2023-04-02T21:24:45.876Z,88.38
2023-04-02T21:27:31.608Z,87.35
2023-04-02T21:30:17.157Z,87.86
2023-04-02T21:33:02.758Z,87.39
2023-04-02T21:35:47.957Z,87.35
2023-04-02T21:38:33.783Z,87.44
2023-04-02T21:41:28.713Z,87.63
2023-04-02T21:44:15.347Z,87.47
2023-04-02T21:47:01.024Z,87.36
2023-04-02T21:49:46.329Z,87.65
2023-04-02T21:52:32.388Z,87.86
2023-04-02T21:55:17.748Z,87.85
2023-04-02T21:58:03.202Z,88.21
2023-04-02T22:00:48.611Z,87.34
2023-04-02T22:03:35.128Z,86.77
2023-04-02T22:06:21.851Z,86.63
2023-04-02T22:09:11.564Z,86.89
2023-04-02T22:12:02.327Z,86.97
2023-04-02T22:14:48.004Z,86.93
2023-04-02T22:17:33.382Z,86.35
2023-04-02T22:20:18.664Z,86.65
2023-04-02T22:23:04.141Z,86.12
2023-04-02T22:25:49.406Z,85.84
2023-04-02T22:28:36.098Z,86.32
2023-04-02T22:31:24.041Z,86.04
2023-04-02T22:34:09.668Z,86.35
2023-04-02T22:36:56.075Z,87.11
2023-04-02T22:39:41.657Z,87.26
2023-04-02T22:42:27.435Z,87.48
2023-04-02T22:45:12.961Z,87.67
2023-04-02T22:47:58.627Z,87.97
2023-04-02T22:50:49.561Z,88.42
2023-04-02T22:53:36.517Z,88.29
2023-04-02T22:56:27.608Z,88.34
2023-04-02T22:59:12.957Z,88.31
2023-04-02T23:01:58.536Z,88.33
2023-04-02T23:04:48.451Z,88.14
2023-04-02T23:07:35.427Z,88.25
2023-04-02T23:10:21.079Z,88.47
2023-04-02T23:13:06.287Z,88.34
2023-04-02T23:15:51.568Z,88.93
2023-04-02T23:18:38.012Z,89.34
2023-04-02T23:21:24.444Z,89.12
2023-04-02T23:24:12.244Z,89.25
2023-04-02T23:26:57.698Z,89.49
2023-04-02T23:29:43.175Z,89.28
2023-04-02T23:32:28.599Z,88.66
2023-04-02T23:35:13.986Z,89.19
2023-04-02T23:37:59.279Z,89.32
2023-04-02T23:40:44.517Z,89.40
2023-04-02T23:43:30.104Z,89.68
2023-04-02T23:46:15.708Z,89.55
2023-04-02T23:49:02.702Z,89.94
2023-04-02T23:51:48.261Z,89.79
2023-04-02T23:54:33.598Z,89.88
2023-04-02T23:57:19.300Z,89.91
